sensor_id;sensor_type;location;lat;lon;timestamp;P1;durP1;ratioP1;P2;durP2;ratioP2
72645;SDS011;60687;53.876;10.674;2024-01-30T00:07:39;10.65;;;5.90;;
72645;SDS011;60687;53.876;10.674;2024-01-30T00:17:44;9.90;;;5.60;;
72645;SDS011;60687;53.876;10.674;2024-01-30T00:27:49;11.20;;;5.33;;
72645;SDS011;60687;53.876;10.674;2024-01-30T00:37:57;10.30;;;5.00;;
72645;SDS011;60687;53.876;10.674;2024-01-30T00:48:06;10.83;;;5.50;;
72645;SDS011;60687;53.876;10.674;2024-01-30T00:58:12;12.23;;;5.20;;
72645;SDS011;60687;53.876;10.674;2024-01-30T01:08:19;10.98;;;5.70;;
72645;SDS011;60687;53.876;10.674;2024-01-30T01:18:27;11.00;;;5.53;;
72645;SDS011;60687;53.876;10.674;2024-01-30T01:28:32;11.43;;;5.97;;
72645;SDS011;60687;53.876;10.674;2024-01-30T01:38:44;11.95;;;5.70;;
72645;SDS011;60687;53.876;10.674;2024-01-30T01:48:53;11.95;;;5.57;;
72645;SDS011;60687;53.876;10.674;2024-01-30T01:58:59;10.27;;;5.97;;
72645;SDS011;60687;53.876;10.674;2024-01-30T02:09:11;10.73;;;5.40;;
72645;SDS011;60687;53.876;10.674;2024-01-30T02:19:16;9.70;;;5.28;;
72645;SDS011;60687;53.876;10.674;2024-01-30T02:29:23;12.57;;;6.30;;
72645;SDS011;60687;53.876;10.674;2024-01-30T02:39:40;10.73;;;4.97;;
72645;SDS011;60687;53.876;10.674;2024-01-30T02:49:47;9.68;;;5.13;;
72645;SDS011;60687;53.876;10.674;2024-01-30T02:59:49;10.30;;;5.37;;
72645;SDS011;60687;53.876;10.674;2024-01-30T03:09:53;12.20;;;5.50;;
72645;SDS011;60687;53.876;10.674;2024-01-30T03:19:57;11.63;;;5.82;;
72645;SDS011;60687;53.876;10.674;2024-01-30T03:30:01;9.00;;;4.75;;
72645;SDS011;60687;53.876;10.674;2024-01-30T03:40:04;10.67;;;5.63;;
72645;SDS011;60687;53.876;10.674;2024-01-30T03:50:09;10.57;;;5.50;;
72645;SDS011;60687;53.876;10.674;2024-01-30T04:00:14;9.75;;;4.90;;
72645;SDS011;60687;53.876;10.674;2024-01-30T04:10:18;10.07;;;5.30;;
72645;SDS011;60687;53.876;10.674;2024-01-30T04:20:21;12.63;;;6.00;;
72645;SDS011;60687;53.876;10.674;2024-01-30T04:30:28;11.25;;;6.63;;
72645;SDS011;60687;53.876;10.674;2024-01-30T04:40:30;13.87;;;9.57;;
72645;SDS011;60687;53.876;10.674;2024-01-30T04:50:34;14.63;;;9.40;;
72645;SDS011;60687;53.876;10.674;2024-01-30T05:00:36;12.18;;;7.05;;
72645;SDS011;60687;53.876;10.674;2024-01-30T05:10:40;11.48;;;5.40;;
72645;SDS011;60687;53.876;10.674;2024-01-30T05:20:44;10.87;;;5.80;;
72645;SDS011;60687;53.876;10.674;2024-01-30T05:30:49;13.73;;;6.53;;
72645;SDS011;60687;53.876;10.674;2024-01-30T05:40:54;11.00;;;5.60;;
72645;SDS011;60687;53.876;10.674;2024-01-30T05:50:59;11.73;;;6.27;;
72645;SDS011;60687;53.876;10.674;2024-01-30T06:01:02;12.23;;;6.53;;
72645;SDS011;60687;53.876;10.674;2024-01-30T06:11:09;11.85;;;6.63;;
72645;SDS011;60687;53.876;10.674;2024-01-30T06:21:12;13.73;;;7.17;;
72645;SDS011;60687;53.876;10.674;2024-01-30T06:31:19;11.50;;;6.70;;
72645;SDS011;60687;53.876;10.674;2024-01-30T06:41:23;14.85;;;8.13;;
72645;SDS011;60687;53.876;10.674;2024-01-30T06:51:27;13.85;;;7.50;;
72645;SDS011;60687;53.876;10.674;2024-01-30T07:01:30;12.37;;;7.03;;
72645;SDS011;60687;53.876;10.674;2024-01-30T07:11:34;12.17;;;7.57;;
72645;SDS011;60687;53.876;10.674;2024-01-30T07:21:39;15.68;;;7.40;;
72645;SDS011;60687;53.876;10.674;2024-01-30T07:31:42;13.90;;;7.93;;
72645;SDS011;60687;53.876;10.674;2024-01-30T07:41:46;13.93;;;7.00;;
72645;SDS011;60687;53.876;10.674;2024-01-30T07:51:50;14.43;;;7.70;;
72645;SDS011;60687;53.876;10.674;2024-01-30T08:02:03;14.47;;;7.40;;
72645;SDS011;60687;53.876;10.674;2024-01-30T08:12:08;14.83;;;8.27;;
72645;SDS011;60687;53.876;10.674;2024-01-30T08:22:11;18.02;;;8.18;;
72645;SDS011;60687;53.876;10.674;2024-01-30T08:32:16;13.85;;;7.75;;
72645;SDS011;60687;53.876;10.674;2024-01-30T08:42:18;13.47;;;7.93;;
72645;SDS011;60687;53.876;10.674;2024-01-30T08:52:26;15.90;;;8.70;;
72645;SDS011;60687;53.876;10.674;2024-01-30T09:02:28;18.35;;;9.13;;
72645;SDS011;60687;53.876;10.674;2024-01-30T09:12:45;15.23;;;8.50;;
72645;SDS011;60687;53.876;10.674;2024-01-30T09:22:51;16.47;;;8.53;;
72645;SDS011;60687;53.876;10.674;2024-01-30T09:32:58;17.90;;;9.43;;
72645;SDS011;60687;53.876;10.674;2024-01-30T09:43:06;15.87;;;8.57;;
72645;SDS011;60687;53.876;10.674;2024-01-30T09:53:14;15.33;;;8.80;;
72645;SDS011;60687;53.876;10.674;2024-01-30T10:03:18;14.63;;;8.20;;
72645;SDS011;60687;53.876;10.674;2024-01-30T10:13:24;15.38;;;8.32;;
72645;SDS011;60687;53.876;10.674;2024-01-30T10:23:29;15.33;;;8.70;;
72645;SDS011;60687;53.876;10.674;2024-01-30T10:33:33;13.50;;;6.90;;
72645;SDS011;60687;53.876;10.674;2024-01-30T10:43:41;14.90;;;8.20;;
72645;SDS011;60687;53.876;10.674;2024-01-30T10:53:53;14.47;;;7.87;;
72645;SDS011;60687;53.876;10.674;2024-01-30T11:04:02;14.60;;;6.70;;
72645;SDS011;60687;53.876;10.674;2024-01-30T11:14:12;15.90;;;8.55;;
72645;SDS011;60687;53.876;10.674;2024-01-30T11:24:23;11.77;;;6.67;;
72645;SDS011;60687;53.876;10.674;2024-01-30T11:34:35;17.23;;;8.20;;
72645;SDS011;60687;53.876;10.674;2024-01-30T11:44:50;13.80;;;7.35;;
72645;SDS011;60687;53.876;10.674;2024-01-30T11:55:01;12.50;;;6.95;;
72645;SDS011;60687;53.876;10.674;2024-01-30T12:05:05;13.67;;;6.70;;
72645;SDS011;60687;53.876;10.674;2024-01-30T12:15:15;15.13;;;8.23;;
72645;SDS011;60687;53.876;10.674;2024-01-30T12:25:41;12.90;;;7.05;;
72645;SDS011;60687;53.876;10.674;2024-01-30T12:35:48;15.73;;;7.23;;
72645;SDS011;60687;53.876;10.674;2024-01-30T12:45:54;15.13;;;8.33;;
72645;SDS011;60687;53.876;10.674;2024-01-30T12:56:00;14.35;;;8.02;;
72645;SDS011;60687;53.876;10.674;2024-01-30T13:06:04;14.27;;;7.43;;
72645;SDS011;60687;53.876;10.674;2024-01-30T13:16:16;13.70;;;7.50;;
72645;SDS011;60687;53.876;10.674;2024-01-30T13:26:23;14.48;;;7.28;;
72645;SDS011;60687;53.876;10.674;2024-01-30T13:36:45;15.82;;;7.32;;
72645;SDS011;60687;53.876;10.674;2024-01-30T13:46:52;14.67;;;7.10;;
72645;SDS011;60687;53.876;10.674;2024-01-30T13:57:07;12.43;;;6.33;;
72645;SDS011;60687;53.876;10.674;2024-01-30T14:07:21;12.77;;;6.20;;
72645;SDS011;60687;53.876;10.674;2024-01-30T14:17:35;12.93;;;6.37;;
72645;SDS011;60687;53.876;10.674;2024-01-30T14:27:48;11.87;;;6.13;;
72645;SDS011;60687;53.876;10.674;2024-01-30T14:37:54;15.10;;;6.25;;
72645;SDS011;60687;53.876;10.674;2024-01-30T14:48:03;15.63;;;7.43;;
72645;SDS011;60687;53.876;10.674;2024-01-30T14:58:13;14.50;;;6.90;;
72645;SDS011;60687;53.876;10.674;2024-01-30T15:08:19;17.95;;;7.93;;
72645;SDS011;60687;53.876;10.674;2024-01-30T15:18:35;10.25;;;4.82;;
72645;SDS011;60687;53.876;10.674;2024-01-30T15:28:50;13.97;;;5.97;;
72645;SDS011;60687;53.876;10.674;2024-01-30T15:38:55;13.90;;;6.87;;
72645;SDS011;60687;53.876;10.674;2024-01-30T15:49:05;13.95;;;6.43;;
72645;SDS011;60687;53.876;10.674;2024-01-30T15:59:13;12.13;;;6.30;;
72645;SDS011;60687;53.876;10.674;2024-01-30T16:09:18;13.23;;;6.50;;
72645;SDS011;60687;53.876;10.674;2024-01-30T16:19:27;16.70;;;7.05;;
72645;SDS011;60687;53.876;10.674;2024-01-30T16:29:39;14.00;;;6.60;;
72645;SDS011;60687;53.876;10.674;2024-01-30T16:39:55;13.10;;;6.87;;
72645;SDS011;60687;53.876;10.674;2024-01-30T16:49:57;14.95;;;6.65;;
72645;SDS011;60687;53.876;10.674;2024-01-30T17:00:08;12.30;;;6.70;;
72645;SDS011;60687;53.876;10.674;2024-01-30T17:10:14;11.70;;;6.67;;
72645;SDS011;60687;53.876;10.674;2024-01-30T17:20:23;14.27;;;7.37;;
72645;SDS011;60687;53.876;10.674;2024-01-30T17:30:35;14.30;;;7.47;;
72645;SDS011;60687;53.876;10.674;2024-01-30T17:40:41;15.00;;;7.77;;
72645;SDS011;60687;53.876;10.674;2024-01-30T17:50:45;14.33;;;7.80;;
72645;SDS011;60687;53.876;10.674;2024-01-30T18:00:49;16.30;;;7.50;;
72645;SDS011;60687;53.876;10.674;2024-01-30T18:10:54;14.80;;;7.57;;
72645;SDS011;60687;53.876;10.674;2024-01-30T18:21:02;17.63;;;7.93;;
72645;SDS011;60687;53.876;10.674;2024-01-30T18:31:07;16.95;;;8.68;;
72645;SDS011;60687;53.876;10.674;2024-01-30T18:51:58;15.00;;;8.40;;
72645;SDS011;60687;53.876;10.674;2024-01-30T19:02:07;16.23;;;9.87;;
72645;SDS011;60687;53.876;10.674;2024-01-30T19:12:10;15.70;;;8.80;;
72645;SDS011;60687;53.876;10.674;2024-01-30T19:22:21;15.47;;;8.00;;
72645;SDS011;60687;53.876;10.674;2024-01-30T19:32:29;13.03;;;7.00;;
72645;SDS011;60687;53.876;10.674;2024-01-30T19:42:35;13.38;;;7.00;;
72645;SDS011;60687;53.876;10.674;2024-01-30T19:53:00;11.00;;;5.13;;
72645;SDS011;60687;53.876;10.674;2024-01-30T20:03:13;9.27;;;4.13;;
72645;SDS011;60687;53.876;10.674;2024-01-30T20:13:18;9.43;;;3.85;;
72645;SDS011;60687;53.876;10.674;2024-01-30T20:23:23;8.60;;;3.47;;
72645;SDS011;60687;53.876;10.674;2024-01-30T20:33:39;8.17;;;3.67;;
72645;SDS011;60687;53.876;10.674;2024-01-30T20:44:01;10.57;;;3.80;;
72645;SDS011;60687;53.876;10.674;2024-01-30T20:54:16;8.75;;;3.47;;
72645;SDS011;60687;53.876;10.674;2024-01-30T21:04:20;8.47;;;3.20;;
72645;SDS011;60687;53.876;10.674;2024-01-30T21:14:23;8.63;;;3.53;;
72645;SDS011;60687;53.876;10.674;2024-01-30T21:24:27;8.77;;;3.78;;
72645;SDS011;60687;53.876;10.674;2024-01-30T21:34:34;7.87;;;3.30;;
72645;SDS011;60687;53.876;10.674;2024-01-30T21:44:41;8.13;;;3.27;;
72645;SDS011;60687;53.876;10.674;2024-01-30T21:54:45;7.75;;;3.10;;
72645;SDS011;60687;53.876;10.674;2024-01-30T22:04:49;7.32;;;3.03;;
72645;SDS011;60687;53.876;10.674;2024-01-30T22:15:11;6.80;;;2.30;;
72645;SDS011;60687;53.876;10.674;2024-01-30T22:25:16;6.33;;;2.40;;
72645;SDS011;60687;53.876;10.674;2024-01-30T22:35:21;6.90;;;1.88;;
72645;SDS011;60687;53.876;10.674;2024-01-30T22:45:25;6.30;;;2.10;;
72645;SDS011;60687;53.876;10.674;2024-01-30T22:55:30;5.00;;;1.80;;
72645;SDS011;60687;53.876;10.674;2024-01-30T23:05:34;5.07;;;1.40;;
72645;SDS011;60687;53.876;10.674;2024-01-30T23:15:42;4.37;;;1.60;;
72645;SDS011;60687;53.876;10.674;2024-01-30T23:25:49;8.87;;;1.90;;
72645;SDS011;60687;53.876;10.674;2024-01-30T23:36:06;6.57;;;1.50;;
72645;SDS011;60687;53.876;10.674;2024-01-30T23:46:17;7.18;;;1.52;;
72645;SDS011;60687;53.876;10.674;2024-01-30T23:56:19;4.93;;;1.70;;
